Time;durP1;ratioP1;P1;durP2;ratioP2;P2;SDS_P1;SDS_P2;PMS_P1;PMS_P2;Temp;Humidity;BMP_temperature;BMP_pressure;BME280_temperature;BME280_humidity;BME280_pressure;Samples;Min_cycle;Max_cycle;Signal;HPM_P1;HPM_P2
2022/07/02 00:01:01;;;;;;;7.97;7.47;;;;;;;27.65;42.76;95239.63;6221811;27;103475;-54
2022/07/02 00:04:05;;;;;;;8.10;7.50;;;;;;;27.69;42.90;95233.22;6233121;28;103323;-53
2022/07/02 00:07:09;;;;;;;7.17;6.67;;;;;;;27.68;42.83;95228.19;6233012;27;102998;-54
2022/07/02 00:10:12;;;;;;;8.43;7.83;;;;;;;27.72;42.38;95234.44;6222714;27;103302;-54
2022/07/02 00:13:16;;;;;;;8.00;7.40;;;;;;;27.77;42.97;95231.56;6226022;27;103271;-53
2022/07/02 00:16:20;;;;;;;7.97;7.47;;;;;;;27.73;43.06;95225.28;6223319;28;103118;-54
2022/07/02 00:19:23;;;;;;;7.80;7.30;;;;;;;27.72;42.68;95221.81;6234937;27;104122;-54
2022/07/02 00:22:28;;;;;;;7.67;7.17;;;;;;;27.87;42.48;95228.41;6224914;28;103413;-54
2022/07/02 00:25:38;;;;;;;10.43;7.80;;;;;;;27.89;42.28;95223.50;6233266;27;103188;-54
2022/07/02 00:28:43;;;;;;;8.17;7.67;;;;;;;27.87;42.34;95235.69;6233822;27;103195;-54
2022/07/02 00:31:49;;;;;;;7.73;7.03;;;;;;;27.84;42.64;95222.91;6229889;28;102856;-53
2022/07/02 00:34:52;;;;;;;7.60;7.10;;;;;;;27.86;42.36;95226.84;6228420;27;103496;-54
2022/07/02 00:37:56;;;;;;;8.30;7.70;;;;;;;27.80;42.69;95224.72;6233126;28;104274;-54
2022/07/02 00:41:02;;;;;;;7.70;7.20;;;;;;;27.75;42.89;95221.13;6233881;27;103472;-54
2022/07/02 00:44:07;;;;;;;8.20;7.60;;;;;;;27.79;42.58;95221.25;6226799;27;103619;-53
2022/07/02 00:47:13;;;;;;;8.10;7.40;;;;;;;27.75;42.38;95226.50;6233142;28;103346;-54
2022/07/02 00:50:16;;;;;;;8.30;7.70;;;;;;;27.67;42.92;95238.16;6236736;27;104093;-54
2022/07/02 00:53:20;;;;;;;8.20;7.60;;;;;;;27.65;43.01;95239.63;6238737;27;104199;-55
2022/07/02 00:56:23;;;;;;;8.23;7.67;;;;;;;27.50;42.66;95234.91;6225727;27;103235;-54
2022/07/02 00:59:26;;;;;;;7.93;7.43;;;;;;;27.51;42.85;95231.88;6236839;27;103183;-54
2022/07/02 01:02:32;;;;;;;8.57;7.77;;;;;;;27.51;43.04;95239.94;6237616;27;102788;-54
2022/07/02 01:05:35;;;;;;;8.50;7.80;;;;;;;27.43;43.38;95232.78;6237536;27;104491;-54
2022/07/02 01:12:02;;;;;;;8.20;7.70;;;;;;;27.37;43.20;95232.22;6238259;28;104229;-54
2022/07/02 01:15:06;;;;;;;8.20;7.70;;;;;;;27.37;43.26;95226.06;6231051;27;102918;-54
2022/07/02 01:18:17;;;;;;;7.97;7.30;;;;;;;27.32;43.16;95224.38;6227955;27;103609;-54
2022/07/02 01:21:20;;;;;;;8.97;8.23;;;;;;;27.31;43.71;95214.75;6237551;27;103160;-54
2022/07/02 01:24:27;;;;;;;8.83;7.50;;;;;;;27.30;43.09;95217.78;6237261;27;104180;-55
2022/07/02 01:27:31;;;;;;;8.20;7.70;;;;;;;27.32;43.07;95202.88;6234667;27;103257;-54
2022/07/02 01:30:34;;;;;;;7.57;7.07;;;;;;;27.48;43.43;95207.59;6223355;28;103552;-56
2022/07/02 01:33:37;;;;;;;8.47;7.87;;;;;;;27.54;43.27;95206.22;6232739;28;103203;-56
2022/07/02 01:36:40;;;;;;;8.30;7.80;;;;;;;27.60;42.53;95211.06;6233753;27;103845;-55
2022/07/02 01:39:46;;;;;;;8.03;7.47;;;;;;;27.64;43.00;95205.78;6234108;27;102818;-54
2022/07/02 01:42:49;;;;;;;7.83;7.33;;;;;;;27.63;42.28;95209.59;6228030;28;104285;-55
2022/07/02 01:45:52;;;;;;;8.27;7.70;;;;;;;27.64;41.91;95205.78;6235053;27;103247;-55
2022/07/02 01:48:55;;;;;;;8.47;7.90;;;;;;;27.58;42.38;95199.88;6235215;27;104007;-56
2022/07/02 01:51:58;;;;;;;8.30;7.70;;;;;;;27.59;42.70;95208.72;6224669;27;102789;-55
2022/07/02 01:55:03;;;;;;;8.23;7.50;;;;;;;27.64;42.44;95203.88;6234006;27;104396;-55
2022/07/02 01:58:06;;;;;;;8.20;7.50;;;;;;;27.69;42.61;95213.63;6236915;27;104352;-55
2022/07/02 02:01:10;;;;;;;8.53;7.80;;;;;;;27.65;42.45;95205.44;6233397;28;104122;-55
2022/07/02 02:04:13;;;;;;;7.83;7.30;;;;;;;27.64;42.61;95197.72;6224639;27;104542;-54
2022/07/02 02:07:16;;;;;;;7.90;7.27;;;;;;;27.64;42.24;95205.78;6227123;27;103135;-55
2022/07/02 02:10:21;;;;;;;9.03;7.93;;;;;;;27.57;42.46;95216.34;6227511;28;103216;-54
2022/07/02 02:13:24;;;;;;;8.20;7.60;;;;;;;27.49;42.84;95214.53;6234796;28;103406;-55
2022/07/02 02:16:28;;;;;;;12.93;7.80;;;;;;;27.38;42.56;95211.50;6224235;27;103219;-55
2022/07/02 02:19:31;;;;;;;9.70;8.90;;;;;;;27.32;42.68;95216.31;6235833;27;104324;-55
2022/07/02 02:22:34;;;;;;;9.43;8.73;;;;;;;27.32;42.93;95216.31;6236844;27;103180;-57
2022/07/02 02:25:38;;;;;;;9.33;8.73;;;;;;;27.27;42.70;95218.44;6228961;27;102973;-55
2022/07/02 02:28:41;;;;;;;9.27;8.67;;;;;;;27.28;43.20;95220.78;6230990;27;104813;-55
2022/07/02 02:31:45;;;;;;;8.90;8.20;;;;;;;27.27;42.82;95223.81;6232749;28;103161;-55
2022/07/02 02:34:48;;;;;;;12.93;12.03;;;;;;;27.27;43.35;95229.19;6234591;28;104301;-55
2022/07/02 02:37:51;;;;;;;10.67;9.87;;;;;;;27.25;43.48;95237.56;6225364;28;103176;-56
2022/07/02 02:40:55;;;;;;;15.43;14.40;;;;;;;27.19;42.93;95236.19;6234379;27;103182;-55
2022/07/02 02:43:58;;;;;;;18.63;17.23;;;;;;;27.16;43.21;95236.88;6234544;28;103163;-55
2022/07/02 02:47:01;;;;;;;13.50;12.50;;;;;;;27.19;43.69;95241.56;6233392;27;103249;-55
2022/07/02 02:50:05;;;;;;;12.97;12.07;;;;;;;27.29;43.24;95243.88;6223588;27;103239;-55
2022/07/02 02:53:08;;;;;;;11.30;10.57;;;;;;;27.34;43.05;95242.84;6235057;27;103178;-55
2022/07/02 02:56:13;;;;;;;10.70;9.90;;;;;;;27.42;43.29;95244.66;6234779;27;104205;-56
2022/07/02 02:59:16;;;;;;;11.73;10.93;;;;;;;27.54;42.68;95254.63;6230022;27;104216;-55
2022/07/02 03:02:19;;;;;;;11.20;10.40;;;;;;;27.55;42.66;95259.66;6226612;27;103954;-55
2022/07/02 03:05:22;;;;;;;14.47;13.40;;;;;;;27.51;42.94;95264.16;6234407;27;103182;-55
2022/07/02 03:08:25;;;;;;;14.13;13.10;;;;;;;27.53;42.93;95263.81;6234772;28;104231;-55
2022/07/02 03:11:31;;;;;;;13.30;12.40;;;;;;;27.60;43.22;95274.81;6226792;27;104120;-55
2022/07/02 03:14:34;;;;;;;13.27;12.27;;;;;;;27.64;42.64;95275.69;6232668;27;104250;-55
2022/07/02 03:17:38;;;;;;;12.43;11.43;;;;;;;27.65;42.69;95277.25;6233174;27;103012;-55
2022/07/02 03:20:41;;;;;;;12.07;11.20;;;;;;;27.67;42.95;95272.34;6234413;27;103275;-55
2022/07/02 03:23:44;;;;;;;10.80;10.10;;;;;;;27.58;42.84;95275.16;6224331;27;103230;-54
2022/07/02 03:26:48;;;;;;;11.87;10.97;;;;;;;27.56;42.83;95276.59;6233756;28;103115;-55
2022/07/02 03:29:58;;;;;;;10.57;9.70;;;;;;;27.60;43.24;95274.81;6232737;28;104064;-54
2022/07/02 03:33:01;;;;;;;10.70;9.90;;;;;;;27.64;42.48;95271.09;6233965;27;104029;-55
2022/07/02 03:36:05;;;;;;;10.17;9.50;;;;;;;27.70;42.19;95277.81;6224468;27;103806;-56
2022/07/02 03:39:08;;;;;;;10.23;9.43;;;;;;;27.66;42.63;95271.53;6232817;27;103068;-56
2022/07/02 03:42:12;;;;;;;11.07;10.27;;;;;;;27.69;43.00;95281.63;6232825;27;103277;-55
2022/07/02 03:45:15;;;;;;;10.03;9.17;;;;;;;27.69;42.97;95287.00;6226190;27;103882;-54
2022/07/02 03:48:18;;;;;;;9.63;8.93;;;;;;;27.66;42.48;95286.91;6231796;27;103430;-55
2022/07/02 03:51:22;;;;;;;10.47;9.57;;;;;;;27.58;43.22;95283.22;6233340;27;104185;-55
2022/07/02 03:54:25;;;;;;;10.20;9.50;;;;;;;27.46;42.63;95285.88;6234535;28;103995;-56
2022/07/02 03:57:30;;;;;;;10.63;9.73;;;;;;;27.46;42.80;95291.25;6223016;27;103789;-55
2022/07/02 04:00:33;;;;;;;11.23;10.30;;;;;;;27.42;43.39;95288.47;6232576;27;103794;-56
2022/07/02 04:03:36;;;;;;;9.97;9.10;;;;;;;27.33;42.93;95289.66;6232891;28;103510;-56
2022/07/02 04:06:39;;;;;;;9.00;8.30;;;;;;;27.27;43.26;95286.41;6234136;27;104000;-55
2022/07/02 04:09:42;;;;;;;10.47;9.77;;;;;;;27.22;43.80;95293.84;6221810;27;103914;-55
2022/07/02 04:12:47;;;;;;;9.70;9.10;;;;;;;27.19;43.35;95298.00;6233342;28;104186;-55
2022/07/02 04:15:50;;;;;;;9.47;8.87;;;;;;;27.26;42.94;95292.91;6234893;27;104336;-55
2022/07/02 04:18:53;;;;;;;10.57;9.67;;;;;;;27.31;42.91;95291.91;6231845;27;102997;-55
2022/07/02 04:22:16;;;;;;;9.73;9.03;;;;;;;27.31;42.99;95287.31;6230885;28;104086;-56
2022/07/02 04:25:19;;;;;;;9.60;9.00;;;;;;;27.37;42.79;95294.03;6237925;27;102982;-54
2022/07/02 04:28:25;;;;;;;9.43;8.83;;;;;;;27.44;43.00;95298.88;6235460;27;103588;-55
2022/07/02 04:31:28;;;;;;;9.10;8.57;;;;;;;27.41;43.33;95305.69;6225636;27;103593;-55
2022/07/02 04:34:32;;;;;;;9.70;9.00;;;;;;;27.46;42.72;95304.69;6235158;28;103085;-55
2022/07/02 04:37:35;;;;;;;9.50;8.90;;;;;;;27.47;42.82;95303.56;6235479;27;102993;-55
2022/07/02 04:40:38;;;;;;;9.17;8.50;;;;;;;27.44;42.98;95298.88;6236004;27;103477;-55
2022/07/02 04:43:42;;;;;;;9.67;8.60;;;;;;;27.55;43.34;95304.59;6227160;27;103317;-55
2022/07/02 04:46:46;;;;;;;10.10;9.30;;;;;;;27.52;43.00;95308.72;6237800;28;104077;-55
2022/07/02 04:49:49;;;;;;;9.73;9.13;;;;;;;27.50;43.56;95307.50;6233805;27;103005;-55
2022/07/02 04:52:52;;;;;;;9.73;8.80;;;;;;;27.24;43.22;95307.75;6225952;27;104090;-55
2022/07/02 04:55:55;;;;;;;10.70;9.53;;;;;;;27.20;44.39;95315.69;6227369;28;103442;-57
2022/07/02 04:58:59;;;;;;;10.80;10.00;;;;;;;27.10;44.70;95308.06;6235297;27;103183;-56
2022/07/02 05:02:02;;;;;;;15.43;10.67;;;;;;;27.11;45.14;95313.09;6235492;27;103235;-55
2022/07/02 05:05:07;;;;;;;14.40;12.90;;;;;;;27.31;44.39;95316.09;6224922;28;104271;-56
2022/07/02 05:08:10;;;;;;;14.63;13.20;;;;;;;27.37;44.47;95304.00;6236001;27;104017;-56
2022/07/02 05:11:13;;;;;;;15.13;12.43;;;;;;;27.50;44.17;95316.34;6235849;28;103021;-56
2022/07/02 05:14:18;;;;;;;15.03;13.57;;;;;;;27.64;44.42;95310.66;6236193;27;103434;-56
2022/07/02 05:17:21;;;;;;;15.20;13.83;;;;;;;27.72;44.26;95305.19;6225192;27;103145;-55
2022/07/02 05:20:24;;;;;;;15.20;13.80;;;;;;;27.74;44.42;95313.69;6234608;27;103217;-55
2022/07/02 05:23:27;;;;;;;18.43;13.50;;;;;;;27.75;44.83;95309.88;6236196;28;104197;-57
2022/07/02 05:26:31;;;;;;;14.87;13.47;;;;;;;27.54;45.48;95311.06;6237333;28;103994;-56
2022/07/02 05:29:35;;;;;;;16.03;14.67;;;;;;;27.68;45.76;95319.63;6224708;27;104015;-57
2022/07/02 05:32:38;;;;;;;15.60;14.03;;;;;;;27.77;45.06;95325.69;6233649;27;104430;-56
2022/07/02 05:35:41;;;;;;;16.37;14.87;;;;;;;27.86;44.97;95322.88;6235286;27;103899;-56
2022/07/02 05:38:45;;;;;;;18.60;15.70;;;;;;;27.95;44.60;95328.97;6231477;28;104164;-55
2022/07/02 05:41:48;;;;;;;18.47;16.53;;;;;;;27.93;45.28;95329.31;6232337;28;103534;-54
2022/07/02 05:44:52;;;;;;;17.83;16.00;;;;;;;28.09;44.55;95329.41;6234557;28;103821;-55
2022/07/02 05:47:55;;;;;;;17.90;16.20;;;;;;;28.06;45.02;95324.72;6234763;27;102833;-55
2022/07/02 05:50:59;;;;;;;15.77;14.57;;;;;;;28.17;44.95;95339.28;6224014;27;103992;-54
2022/07/02 05:54:02;;;;;;;15.63;14.23;;;;;;;28.12;45.07;95338.72;6234057;28;104134;-54
2022/07/02 05:57:06;;;;;;;15.37;14.00;;;;;;;27.98;45.69;95333.66;6235864;27;103336;-56
2022/07/02 06:00:18;;;;;;;15.50;14.10;;;;;;;28.08;45.38;95335.13;6234451;27;103193;-55
2022/07/02 06:03:21;;;;;;;15.20;13.73;;;;;;;28.09;45.38;95324.03;6223827;27;105345;-55
2022/07/02 06:09:53;;;;;;;13.97;12.57;;;;;;;28.23;45.22;95334.47;6190538;28;104090;-55
2022/07/02 06:12:56;;;;;;;14.53;13.07;;;;;;;28.14;44.46;95333.78;6223412;27;104392;-61
2022/07/02 06:16:01;;;;;;;13.87;12.67;;;;;;;28.07;46.08;95328.19;6233227;27;103232;-56
2022/07/02 06:19:06;;;;;;;20.43;13.17;;;;;;;28.05;44.85;95321.22;6234840;28;103125;-55
2022/07/02 06:22:09;;;;;;;14.63;12.93;;;;;;;27.99;45.56;95321.78;6222303;28;104572;-57
2022/07/02 06:25:13;;;;;;;14.27;12.97;;;;;;;27.98;45.16;95322.91;6223703;27;103146;-57
2022/07/02 06:28:16;;;;;;;15.20;12.37;;;;;;;27.84;44.54;95331.28;6236442;27;103171;-57
2022/07/02 06:31:20;;;;;;;13.70;12.40;;;;;;;27.50;43.42;95323.63;6234280;27;103008;-57
2022/07/02 06:34:23;;;;;;;12.80;11.70;;;;;;;27.11;42.10;95326.53;6235456;27;103586;-57
2022/07/02 06:37:27;;;;;;;13.50;12.30;;;;;;;26.87;41.54;95331.78;6225215;28;104634;-56
2022/07/02 06:40:30;;;;;;;12.93;11.80;;;;;;;26.75;41.28;95332.53;6231928;27;103284;-57
2022/07/02 06:43:33;;;;;;;12.63;11.63;;;;;;;26.68;40.63;95332.28;6236113;27;104181;-56
2022/07/02 06:46:37;;;;;;;13.53;12.33;;;;;;;26.61;40.52;95332.00;6230138;28;102890;-58
2022/07/02 06:49:40;;;;;;;12.97;11.97;;;;;;;26.43;40.64;95330.53;6227443;28;104171;-56
2022/07/02 06:52:45;;;;;;;13.40;12.10;;;;;;;26.48;39.64;95339.19;6235385;28;104022;-56
2022/07/02 06:55:48;;;;;;;12.07;11.17;;;;;;;26.43;39.71;95333.22;6232388;27;104346;-56
2022/07/02 06:58:51;;;;;;;17.53;16.00;;;;;;;26.42;39.47;95334.34;6222612;28;103434;-56
2022/07/02 07:01:56;;;;;;;20.37;18.60;;;;;;;26.38;39.39;95338.78;6233681;27;102921;-57
2022/07/02 07:05:14;;;;;;;21.53;19.60;;;;;;;26.26;39.71;95337.59;6233057;27;103068;-55
2022/07/02 07:08:17;;;;;;;20.90;19.10;;;;;;;26.24;39.08;95337.13;6233460;27;103281;-56
2022/07/02 07:11:21;;;;;;;21.80;20.10;;;;;;;26.18;38.81;95330.38;6224482;27;103781;-56
2022/07/02 07:14:25;;;;;;;21.90;19.90;;;;;;;26.16;38.58;95331.81;6218940;28;103679;-56
2022/07/02 07:17:29;;;;;;;22.13;19.70;;;;;;;26.21;39.05;95351.22;6232334;27;103099;-55
2022/07/02 07:20:32;;;;;;;21.00;19.30;;;;;;;26.11;38.75;95356.16;6225270;28;104064;-56
2022/07/02 07:23:35;;;;;;;22.77;20.60;;;;;;;25.91;38.99;95346.91;6228875;27;104578;-56
2022/07/02 07:26:39;;;;;;;23.43;21.27;;;;;;;25.81;39.50;95347.25;6232221;27;103827;-56
2022/07/02 07:29:42;;;;;;;24.00;21.63;;;;;;;25.77;39.33;95343.66;6248983;27;103123;-56
2022/07/02 07:32:47;;;;;;;21.50;19.60;;;;;;;25.69;39.39;95347.94;6244217;27;103277;-56
2022/07/02 07:35:50;;;;;;;22.10;20.10;;;;;;;25.65;39.13;95353.16;6235085;27;103188;-56
2022/07/02 07:38:54;;;;;;;22.33;20.33;;;;;;;25.62;39.27;95347.66;6232026;28;104260;-56
2022/07/02 07:41:57;;;;;;;21.73;19.70;;;;;;;25.51;39.08;95338.38;6230106;27;103043;-55
2022/07/02 07:45:00;;;;;;;21.43;19.37;;;;;;;24.94;41.57;95346.66;6223562;27;103340;-56
2022/07/02 07:48:05;;;;;;;22.63;20.50;;;;;;;24.98;41.18;95342.25;6234604;27;103470;-56
2022/07/02 07:51:08;;;;;;;20.93;19.13;;;;;;;25.10;41.69;95339.72;6234727;27;104145;-56
2022/07/02 07:54:12;;;;;;;21.50;19.60;;;;;;;25.43;40.28;95340.00;6234038;27;102939;-58
2022/07/02 07:57:15;;;;;;;20.87;18.93;;;;;;;25.56;40.25;95330.19;6224822;27;103068;-56
2022/07/02 08:00:18;;;;;;;20.10;18.40;;;;;;;25.61;39.90;95349.56;6234714;27;103227;-57
2022/07/02 08:03:23;;;;;;;23.53;21.73;;;;;;;25.69;40.13;95354.06;6233172;28;104139;-58
2022/07/02 08:06:26;;;;;;;22.20;20.37;;;;;;;25.69;40.18;95353.28;6228734;27;104167;-57
2022/07/02 08:09:29;;;;;;;22.27;20.27;;;;;;;25.67;40.20;95352.84;6238025;27;103332;-57
2022/07/02 08:12:32;;;;;;;21.27;19.37;;;;;;;25.66;40.32;95354.72;6232590;27;104871;-55
2022/07/02 08:15:35;;;;;;;18.03;16.50;;;;;;;25.45;41.47;95350.38;6230295;27;103335;-56
2022/07/02 08:18:40;;;;;;;18.87;17.37;;;;;;;25.75;41.18;95360.06;6222474;27;103596;-55
2022/07/02 08:21:43;;;;;;;19.60;17.90;;;;;;;25.76;41.01;95342.09;6231711;28;104093;-56
2022/07/02 08:24:46;;;;;;;19.23;17.70;;;;;;;25.85;40.84;95343.59;6232494;27;103331;-56
2022/07/02 08:27:49;;;;;;;19.33;17.67;;;;;;;25.81;41.15;95355.31;6232457;27;103335;-55
2022/07/02 08:30:53;;;;;;;19.57;17.40;;;;;;;25.82;41.96;95357.66;6216024;27;102903;-56
2022/07/02 08:33:57;;;;;;;21.17;19.33;;;;;;;25.96;41.67;95354.78;6226874;28;102991;-56
2022/07/02 08:37:00;;;;;;;22.00;20.20;;;;;;;25.95;40.92;95358.56;6231060;27;103626;-56
